Time;durP1;ratioP1;P1;durP2;ratioP2;P2;SDS_P1;SDS_P2;PMS_P1;PMS_P2;Temp;Humidity;BMP_temperature;BMP_pressure;BME280_temperature;BME280_humidity;BME280_pressure;Samples;Min_cycle;Max_cycle;Signal;HPM_P1;HPM_P2
2022/06/24 00:01:11;;;;;;;;;;;;;;;25.97;37.77;100818.88;4978201;28;20710;-89
2022/06/24 00:03:37;;;;;;;;;;;;;;;25.90;37.75;100820.81;4991365;28;19985;-88
2022/06/24 00:06:07;;;;;;;;;;;;;;;25.87;37.85;100815.94;4978417;28;19938;-89
2022/06/24 00:08:32;;;;;;;;;;;;;;;25.82;37.78;100805.09;4980821;28;19959;-89
2022/06/24 00:11:10;;;;;;;;;;;;;;;25.85;37.69;100794.81;4980917;28;20786;-91
2022/06/24 00:13:39;;;;;;;;;;;;;;;25.83;37.70;100796.84;4978574;28;19992;-90
2022/06/24 00:16:04;;;;;;;;;;;;;;;25.79;37.80;100795.66;4978898;28;19936;-89
2022/06/24 00:18:30;;;;;;;;;;;;;;;25.84;37.78;100787.81;4982105;28;20038;-89
2022/06/24 00:20:56;;;;;;;;;;;;;;;25.88;37.65;100796.22;4985182;28;19983;-90
2022/06/24 00:23:21;;;;;;;;;;;;;;;25.80;38.10;100783.16;4986551;28;19943;-91
2022/06/24 00:25:47;;;;;;;;;;;;;;;25.81;38.29;100776.78;4982524;28;19972;-91
2022/06/24 00:28:13;;;;;;;;;;;;;;;25.78;38.26;100775.38;4986683;28;19957;-92
2022/06/24 00:30:39;;;;;;;;;;;;;;;25.79;38.09;100776.19;4986763;28;19937;-92
2022/06/24 00:33:09;;;;;;;;;;;;;;;25.81;38.01;100776.78;4973844;28;20035;-91
2022/06/24 00:35:51;;;;;;;;;;;;;;;25.79;38.08;100763.66;4986916;28;19982;-90
2022/06/24 00:38:26;;;;;;;;;;;;;;;25.76;38.39;100764.09;4983470;28;19959;-91
2022/06/24 00:41:02;;;;;;;;;;;;;;;25.75;38.46;100762.47;4979744;28;20833;-89
2022/06/24 00:43:28;;;;;;;;;;;;;;;25.68;38.53;100758.25;4978771;28;19933;-90
2022/06/24 00:46:00;;;;;;;;;;;;;;;25.79;38.30;100758.31;4997574;28;20727;-90
2022/06/24 00:48:27;;;;;;;;;;;;;;;25.85;38.47;100744.13;4981387;28;19938;-89
2022/06/24 00:50:52;;;;;;;;;;;;;;;25.72;38.67;100738.09;4981027;28;19967;-89
2022/06/24 00:53:18;;;;;;;;;;;;;;;25.78;38.54;100743.38;4980785;28;20393;-88
2022/06/24 00:55:45;;;;;;;;;;;;;;;25.73;38.47;100745.06;4961874;28;20014;-89
2022/06/24 00:58:12;;;;;;;;;;;;;;;25.76;38.51;100741.97;4981489;28;19959;-89
2022/06/24 01:00:37;;;;;;;;;;;;;;;25.75;38.25;100741.16;4979753;28;20015;-89
2022/06/24 01:03:04;;;;;;;;;;;;;;;25.68;38.68;100740.41;4963794;28;21378;-91
2022/06/24 01:05:30;;;;;;;;;;;;;;;25.80;38.55;100727.13;4982618;28;21085;-90
2022/06/24 01:07:56;;;;;;;;;;;;;;;25.74;38.32;100720.84;4964356;28;19938;-90
2022/06/24 01:10:21;;;;;;;;;;;;;;;25.77;38.49;100722.25;4982312;28;19939;-89
2022/06/24 01:12:47;;;;;;;;;;;;;;;25.72;38.38;100716.78;4981844;28;20810;-90
2022/06/24 01:15:12;;;;;;;;;;;;;;;25.74;38.47;100706.69;4979000;28;19943;-89
2022/06/24 01:17:38;;;;;;;;;;;;;;;25.71;38.46;100710.63;4963966;28;21346;-89
2022/06/24 01:20:04;;;;;;;;;;;;;;;25.75;38.74;100703.00;4965897;28;19955;-89
2022/06/24 01:22:30;;;;;;;;;;;;;;;25.71;38.85;100701.81;4980934;28;19944;-89
2022/06/24 01:24:55;;;;;;;;;;;;;;;25.76;38.61;100694.75;4965184;28;19939;-89
2022/06/24 01:27:20;;;;;;;;;;;;;;;25.67;39.08;100688.03;4979721;28;20056;-89
2022/06/24 01:29:46;;;;;;;;;;;;;;;25.62;39.15;100685.25;4981893;28;19984;-89
2022/06/24 01:32:11;;;;;;;;;;;;;;;25.58;39.10;100682.19;4985303;28;20029;-90
2022/06/24 01:34:37;;;;;;;;;;;;;;;25.65;39.01;100675.97;4964696;28;19960;-90
2022/06/24 01:37:03;;;;;;;;;;;;;;;25.60;39.15;100666.78;5003565;28;20015;-90
2022/06/24 01:39:29;;;;;;;;;;;;;;;25.71;38.95;100677.81;4981565;28;19947;-90
2022/06/24 01:41:54;;;;;;;;;;;;;;;25.73;38.83;100678.41;4967104;28;20343;-90
2022/06/24 01:44:20;;;;;;;;;;;;;;;25.67;39.32;100668.56;4982013;28;19977;-89
2022/06/24 01:46:45;;;;;;;;;;;;;;;25.64;39.09;100671.69;4981877;28;19988;-89
2022/06/24 01:49:11;;;;;;;;;;;;;;;25.63;39.22;100670.06;4984619;28;19941;-88
2022/06/24 01:51:38;;;;;;;;;;;;;;;25.53;39.60;100670.59;4978676;28;20307;-88
2022/06/24 01:54:03;;;;;;;;;;;;;;;25.57;39.46;100661.91;4981556;28;20066;-88
2022/06/24 01:56:29;;;;;;;;;;;;;;;25.61;39.56;100662.28;4979982;28;19936;-88
2022/06/24 01:58:54;;;;;;;;;;;;;;;25.59;39.39;100659.03;4963080;28;20083;-89
2022/06/24 02:01:19;;;;;;;;;;;;;;;25.64;39.64;100647.69;4980786;28;21293;-89
2022/06/24 02:03:45;;;;;;;;;;;;;;;25.61;39.85;100648.94;4980467;28;19969;-89
2022/06/24 02:06:11;;;;;;;;;;;;;;;25.52;39.79;100642.28;4979891;28;19941;-89
2022/06/24 02:08:37;;;;;;;;;;;;;;;25.53;39.64;100641.25;4977008;28;20010;-88
2022/06/24 02:13:57;;;;;;;;;;;;;;;25.50;39.76;100639.03;4960886;28;19937;-88
2022/06/24 02:16:23;;;;;;;;;;;;;;;25.57;39.43;100635.25;4975784;28;19966;-89
2022/06/24 02:18:48;;;;;;;;;;;;;;;25.50;39.71;100631.03;4981200;28;19971;-88
2022/06/24 02:21:14;;;;;;;;;;;;;;;25.52;39.55;100626.31;4979283;28;21071;-88
2022/06/24 02:23:40;;;;;;;;;;;;;;;25.48;39.60;100622.41;4980174;28;19936;-88
2022/06/24 02:26:05;;;;;;;;;;;;;;;25.45;39.87;100614.88;4979829;28;20355;-88
2022/06/24 02:28:31;;;;;;;;;;;;;;;25.42;39.81;100615.31;4976995;28;20787;-89
2022/06/24 02:30:58;;;;;;;;;;;;;;;25.47;39.73;100615.47;4992206;28;19940;-93
2022/06/24 02:33:24;;;;;;;;;;;;;;;25.51;39.47;100617.50;5012266;28;19943;-94
2022/06/24 02:35:49;;;;;;;;;;;;;;;25.53;39.69;100610.06;5019763;28;20362;-95
2022/06/24 02:38:14;;;;;;;;;;;;;;;25.52;39.65;100604.97;4999906;28;19962;-94
2022/06/24 02:40:47;;;;;;;;;;;;;;;25.46;39.59;100608.50;4983092;28;19940;-94
2022/06/24 02:43:16;;;;;;;;;;;;;;;25.34;39.72;100604.97;4984190;28;19937;-93
2022/06/24 02:45:45;;;;;;;;;;;;;;;25.40;39.48;100607.56;4990767;28;20018;-91
2022/06/24 02:48:11;;;;;;;;;;;;;;;25.35;39.38;100603.94;4997894;28;20379;-92
2022/06/24 02:50:37;;;;;;;;;;;;;;;25.38;38.94;100598.16;4997681;28;19941;-92
2022/06/24 02:53:03;;;;;;;;;;;;;;;25.39;38.91;100589.13;4996650;28;20032;-91
2022/06/24 02:55:28;;;;;;;;;;;;;;;25.45;38.74;100589.03;4980978;28;19977;-92
2022/06/24 02:57:53;;;;;;;;;;;;;;;25.44;38.49;100583.94;5015257;28;19927;-92
2022/06/24 03:00:19;;;;;;;;;;;;;;;25.42;38.48;100584.16;4966207;28;19940;-90
2022/06/24 03:02:45;;;;;;;;;;;;;;;25.46;38.19;100580.00;4998656;28;20424;-91
2022/06/24 03:05:10;;;;;;;;;;;;;;;25.39;38.63;100579.28;5000100;28;20003;-90
2022/06/24 03:07:35;;;;;;;;;;;;;;;25.40;38.57;100580.09;4976907;28;19950;-92
2022/06/24 03:10:01;;;;;;;;;;;;;;;25.39;38.43;100581.94;5007199;28;19933;-91
2022/06/24 03:12:26;;;;;;;;;;;;;;;25.41;38.41;100576.38;4992788;28;19944;-91
2022/06/24 03:14:51;;;;;;;;;;;;;;;25.37;38.45;100568.00;4987034;28;20397;-91
2022/06/24 03:17:17;;;;;;;;;;;;;;;25.37;38.36;100559.22;5014422;28;20294;-91
2022/06/24 03:19:42;;;;;;;;;;;;;;;25.33;38.67;100558.03;5000051;28;19959;-92
2022/06/24 03:22:08;;;;;;;;;;;;;;;25.39;38.34;100565.13;5015767;28;19935;-91
2022/06/24 03:24:33;;;;;;;;;;;;;;;25.38;38.01;100564.31;4999562;28;20349;-91
2022/06/24 03:26:58;;;;;;;;;;;;;;;25.36;38.28;100571.72;4999086;28;19946;-90
2022/06/24 03:29:24;;;;;;;;;;;;;;;25.33;38.31;100576.69;4982654;28;20062;-91
2022/06/24 03:31:49;;;;;;;;;;;;;;;25.29;38.32;100573.63;5031668;28;20334;-91
2022/06/24 03:34:14;;;;;;;;;;;;;;;25.28;38.35;100566.66;4999255;28;20301;-91
2022/06/24 03:36:40;;;;;;;;;;;;;;;25.37;38.20;100573.34;5032606;28;19982;-91
2022/06/24 03:39:06;;;;;;;;;;;;;;;25.30;38.39;100576.06;4999643;28;20387;-91
2022/06/24 03:41:33;;;;;;;;;;;;;;;25.33;38.52;100568.69;4999844;28;19939;-91
2022/06/24 03:43:59;;;;;;;;;;;;;;;25.30;38.48;100569.91;5016519;28;20327;-91
2022/06/24 03:46:25;;;;;;;;;;;;;;;25.25;38.80;100562.59;5015690;28;19927;-91
2022/06/24 03:48:50;;;;;;;;;;;;;;;25.30;38.44;100570.75;4999247;28;20395;-92
2022/06/24 03:51:15;;;;;;;;;;;;;;;25.27;38.47;100565.84;4999032;28;20404;-89
2022/06/24 03:53:41;;;;;;;;;;;;;;;25.27;38.45;100557.84;5015176;28;20399;-91
2022/06/24 03:56:08;;;;;;;;;;;;;;;25.21;38.59;100561.44;4998774;28;19996;-90
2022/06/24 03:58:34;;;;;;;;;;;;;;;25.21;38.53;100564.09;5015329;28;19963;-91
2022/06/24 04:01:00;;;;;;;;;;;;;;;25.19;38.69;100554.69;5031766;28;20435;-90
2022/06/24 04:03:25;;;;;;;;;;;;;;;25.15;38.64;100548.19;5016601;28;19925;-91
2022/06/24 04:05:51;;;;;;;;;;;;;;;25.12;38.55;100541.41;5016822;28;19938;-91
2022/06/24 04:08:16;;;;;;;;;;;;;;;25.12;38.58;100540.59;5014732;28;19937;-91
2022/06/24 04:10:41;;;;;;;;;;;;;;;25.09;38.66;100541.06;5015993;28;19936;-91
2022/06/24 04:13:07;;;;;;;;;;;;;;;25.14;38.42;100538.56;4998442;28;19943;-90
2022/06/24 04:15:32;;;;;;;;;;;;;;;25.16;38.53;100533.81;5015435;28;20320;-90
2022/06/24 04:17:58;;;;;;;;;;;;;;;25.11;38.67;100529.13;4999077;28;19929;-91
2022/06/24 04:20:23;;;;;;;;;;;;;;;25.06;38.47;100526.34;5014315;28;20021;-90
2022/06/24 04:22:48;;;;;;;;;;;;;;;25.11;38.58;100537.13;5010815;28;20576;-90
2022/06/24 04:25:14;;;;;;;;;;;;;;;25.17;38.54;100540.78;4984309;28;20341;-90
2022/06/24 04:27:40;;;;;;;;;;;;;;;25.08;38.75;100553.56;4987319;28;19979;-90
2022/06/24 04:30:06;;;;;;;;;;;;;;;25.12;38.69;100551.25;4983374;28;19964;-90
2022/06/24 04:32:31;;;;;;;;;;;;;;;25.06;38.82;100550.31;4954627;28;19944;-89
2022/06/24 04:34:57;;;;;;;;;;;;;;;25.07;38.89;100551.94;4979297;28;19929;-91
2022/06/24 04:37:22;;;;;;;;;;;;;;;25.05;38.69;100551.34;4972516;28;19937;-91
2022/06/24 04:39:48;;;;;;;;;;;;;;;25.07;39.00;100543.13;4986308;28;20054;-91
2022/06/24 04:42:13;;;;;;;;;;;;;;;25.13;38.89;100539.56;4960713;28;20020;-92
2022/06/24 04:44:39;;;;;;;;;;;;;;;25.09;39.30;100535.72;4960421;28;19932;-91
2022/06/24 04:47:04;;;;;;;;;;;;;;;25.13;39.03;100536.91;4979712;28;19938;-91
2022/06/24 04:49:29;;;;;;;;;;;;;;;25.05;39.23;100516.72;4959351;28;19938;-92
2022/06/24 04:51:55;;;;;;;;;;;;;;;25.06;39.16;100537.00;4974878;28;20049;-92
2022/06/24 04:54:20;;;;;;;;;;;;;;;25.05;39.21;100540.69;4946336;28;20338;-92
2022/06/24 04:56:46;;;;;;;;;;;;;;;25.06;39.40;100552.16;4993802;28;19964;-91
2022/06/24 04:59:11;;;;;;;;;;;;;;;25.09;39.59;100551.72;4978024;28;19956;-91
2022/06/24 05:01:37;;;;;;;;;;;;;;;25.11;39.52;100542.47;4980362;28;20024;-91
2022/06/24 05:04:03;;;;;;;;;;;;;;;25.08;39.57;100542.91;4961417;28;20316;-91
2022/06/24 05:06:28;;;;;;;;;;;;;;;25.04;39.48;100544.38;4974673;28;19935;-91
2022/06/24 05:08:53;;;;;;;;;;;;;;;25.04;39.68;100548.91;4969508;28;20302;-91
2022/06/24 05:11:19;;;;;;;;;;;;;;;25.02;39.67;100546.47;4983025;28;19936;-92
2022/06/24 05:14:03;;;;;;;;;;;;;;;25.08;39.69;100534.09;4969521;28;19938;-91
2022/06/24 05:16:29;;;;;;;;;;;;;;;25.13;39.56;100528.91;4992247;28;19990;-91
2022/06/24 05:18:57;;;;;;;;;;;;;;;25.06;39.75;100528.19;4984272;28;20292;-91
2022/06/24 05:21:23;;;;;;;;;;;;;;;25.05;40.05;100521.22;4988478;28;19973;-91
2022/06/24 05:23:48;;;;;;;;;;;;;;;25.18;40.09;100527.22;4983908;28;20401;-90
2022/06/24 05:26:14;;;;;;;;;;;;;;;25.07;40.11;100524.47;4964994;28;19947;-91
2022/06/24 05:28:39;;;;;;;;;;;;;;;25.07;40.17;100527.97;4969849;28;20011;-90
2022/06/24 05:31:04;;;;;;;;;;;;;;;25.06;40.36;100523.66;4981283;28;20338;-90
2022/06/24 05:33:33;;;;;;;;;;;;;;;25.11;40.25;100517.66;4983700;28;20411;-90
2022/06/24 05:35:58;;;;;;;;;;;;;;;25.14;40.25;100519.91;4993567;28;19929;-90
2022/06/24 05:38:24;;;;;;;;;;;;;;;25.14;40.16;100507.41;4997657;28;19969;-90
2022/06/24 05:40:50;;;;;;;;;;;;;;;25.17;40.38;100496.28;4992703;28;19946;-90
2022/06/24 05:43:16;;;;;;;;;;;;;;;25.16;40.33;100488.53;4988404;28;19933;-91
2022/06/24 05:45:41;;;;;;;;;;;;;;;25.16;40.59;100488.53;5003019;28;20440;-92
2022/06/24 05:48:06;;;;;;;;;;;;;;;25.15;40.66;100493.03;5017310;28;19978;-91
2022/06/24 05:50:32;;;;;;;;;;;;;;;25.15;40.76;100484.25;4964782;28;20673;-91
2022/06/24 05:55:41;;;;;;;;;;;;;;;25.11;41.17;100502.50;4976531;28;19984;-90
2022/06/24 05:58:07;;;;;;;;;;;;;;;25.19;41.41;100509.41;4974977;28;20345;-90
2022/06/24 06:00:32;;;;;;;;;;;;;;;25.17;41.54;100533.59;4964160;28;19932;-91
2022/06/24 06:02:57;;;;;;;;;;;;;;;25.17;41.67;100612.72;4982680;28;19955;-90
2022/06/24 06:05:23;;;;;;;;;;;;;;;25.16;41.83;100648.41;4978020;28;20011;-90
2022/06/24 06:07:48;;;;;;;;;;;;;;;25.18;42.33;100649.81;4996075;28;19950;-91
2022/06/24 06:10:13;;;;;;;;;;;;;;;25.16;42.63;100645.72;4973314;28;19943;-91
2022/06/24 06:12:39;;;;;;;;;;;;;;;25.12;43.46;100624.03;4990412;28;19938;-90
2022/06/24 06:15:04;;;;;;;;;;;;;;;25.15;44.20;100598.81;4986126;28;19933;-90
2022/06/24 06:17:30;;;;;;;;;;;;;;;25.18;44.35;100617.81;4990948;28;19949;-91
2022/06/24 06:19:55;;;;;;;;;;;;;;;25.20;45.10;100605.09;4984442;28;19959;-90
2022/06/24 06:22:20;;;;;;;;;;;;;;;25.15;45.77;100598.81;4985444;28;19943;-91
2022/06/24 06:24:46;;;;;;;;;;;;;;;25.14;46.56;100606.00;4986014;28;20007;-91
2022/06/24 06:27:12;;;;;;;;;;;;;;;25.16;46.42;100630.56;4984177;28;19933;-91
2022/06/24 06:29:37;;;;;;;;;;;;;;;25.18;46.68;100633.81;4972136;28;19980;-91
2022/06/24 06:32:03;;;;;;;;;;;;;;;25.18;47.45;100638.34;4969370;28;19984;-91
2022/06/24 06:34:29;;;;;;;;;;;;;;;25.22;47.57;100645.66;4989662;28;20026;-91
2022/06/24 06:36:54;;;;;;;;;;;;;;;25.15;48.14;100658.25;4979266;28;19946;-92
2022/06/24 06:39:20;;;;;;;;;;;;;;;25.19;48.03;100675.41;4983164;28;20013;-91
2022/06/24 06:41:46;;;;;;;;;;;;;;;25.21;48.79;100672.53;4966346;28;19937;-91
2022/06/24 06:44:12;;;;;;;;;;;;;;;25.24;48.49;100643.59;4967223;28;20435;-92
2022/06/24 06:46:38;;;;;;;;;;;;;;;25.18;48.93;100620.50;4981490;28;20394;-91
2022/06/24 06:49:03;;;;;;;;;;;;;;;25.18;49.05;100625.00;4967530;28;20037;-91
2022/06/24 06:51:28;;;;;;;;;;;;;;;25.24;49.17;100637.44;4977479;28;19997;-91
2022/06/24 06:53:54;;;;;;;;;;;;;;;25.28;49.56;100646.63;4978919;28;20382;-91
2022/06/24 06:56:19;;;;;;;;;;;;;;;25.24;49.09;100648.09;4983384;28;19939;-91
2022/06/24 06:58:44;;;;;;;;;;;;;;;25.24;49.21;100656.91;4958174;28;20551;-86
2022/06/24 07:01:10;;;;;;;;;;;;;;;25.19;51.30;100664.75;4961223;28;19945;-84
2022/06/24 07:03:35;;;;;;;;;;;;;;;24.85;53.56;100657.22;4958395;28;19942;-85
2022/06/24 07:06:01;;;;;;;;;;;;;;;24.83;53.44;100616.69;4962715;28;19975;-85
2022/06/24 07:08:26;;;;;;;;;;;;;;;24.90;53.07;100614.78;4960208;28;19939;-85
2022/06/24 07:10:51;;;;;;;;;;;;;;;25.20;53.33;100610.44;4962904;28;19939;-84
2022/06/24 07:13:18;;;;;;;;;;;;;;;25.02;53.79;100599.75;4959375;28;19978;-84
2022/06/24 07:15:44;;;;;;;;;;;;;;;25.16;53.74;100611.09;4958990;28;19937;-84
2022/06/24 07:18:09;;;;;;;;;;;;;;;24.92;55.19;100612.69;4959438;28;20482;-84
2022/06/24 07:20:34;;;;;;;;;;;;;;;24.87;55.64;100609.88;4960692;28;20586;-83
2022/06/24 07:23:00;;;;;;;;;;;;;;;24.54;57.55;100612.81;4958935;28;19936;-84
2022/06/24 07:25:25;;;;;;;;;;;;;;;24.61;56.27;100590.44;4961499;28;19947;-83
2022/06/24 07:27:51;;;;;;;;;;;;;;;24.92;55.76;100589.53;4959185;28;20073;-84
2022/06/24 07:30:16;;;;;;;;;;;;;;;24.99;55.76;100597.50;4959791;28;20357;-83
2022/06/24 07:32:41;;;;;;;;;;;;;;;25.06;55.30;100603.59;4962277;28;20047;-84
2022/06/24 07:35:07;;;;;;;;;;;;;;;24.89;56.06;100605.16;4959401;28;19967;-83
2022/06/24 07:37:32;;;;;;;;;;;;;;;25.08;55.28;100606.84;4967304;28;20413;-85
2022/06/24 07:39:58;;;;;;;;;;;;;;;24.83;56.18;100622.00;4972507;28;19966;-85
2022/06/24 07:42:23;;;;;;;;;;;;;;;24.62;57.93;100633.84;4967916;28;19994;-85
2022/06/24 07:44:49;;;;;;;;;;;;;;;24.40;58.91;100633.38;4968862;28;20019;-84
2022/06/24 07:47:14;;;;;;;;;;;;;;;24.34;59.14;100645.69;4967581;28;19943;-84
2022/06/24 07:49:40;;;;;;;;;;;;;;;24.29;59.71;100637.53;4965292;28;19945;-84
2022/06/24 07:52:07;;;;;;;;;;;;;;;24.50;58.29;100604.44;4971658;28;19989;-84
2022/06/24 07:54:33;;;;;;;;;;;;;;;24.67;57.99;100610.06;4965845;28;20313;-85
2022/06/24 07:56:58;;;;;;;;;;;;;;;24.90;57.08;100622.75;4947837;28;19984;-85
2022/06/24 07:59:25;;;;;;;;;;;;;;;24.40;59.08;100622.72;4964678;28;19967;-84
2022/06/24 08:01:54;;;;;;;;;;;;;;;24.26;60.26;100608.69;4969682;28;19974;-84
2022/06/24 08:04:20;;;;;;;;;;;;;;;24.62;58.33;100570.78;4969287;28;19967;-84
2022/06/24 08:06:49;;;;;;;;;;;;;;;24.98;57.52;100542.59;4969954;28;20089;-84
2022/06/24 08:09:14;;;;;;;;;;;;;;;25.02;57.62;100543.81;4995886;28;20022;-85
2022/06/24 08:11:40;;;;;;;;;;;;;;;25.04;57.39;100548.91;4967102;28;19947;-85
2022/06/24 08:14:05;;;;;;;;;;;;;;;24.91;57.84;100544.47;4965977;28;19970;-85
2022/06/24 08:16:30;;;;;;;;;;;;;;;24.71;58.49;100542.81;4993649;28;19974;-84
2022/06/24 08:18:56;;;;;;;;;;;;;;;24.90;58.11;100549.00;4970762;28;19976;-86
2022/06/24 08:21:22;;;;;;;;;;;;;;;24.80;58.68;100554.03;4976447;28;20489;-85
2022/06/24 08:23:48;;;;;;;;;;;;;;;24.56;59.50;100555.66;4973629;28;20278;-84
2022/06/24 08:26:16;;;;;;;;;;;;;;;24.96;58.00;100539.34;4966558;28;20377;-85
2022/06/24 08:28:42;;;;;;;;;;;;;;;24.88;58.13;100543.09;4968385;28;19969;-85
2022/06/24 08:31:08;;;;;;;;;;;;;;;24.74;59.05;100546.09;4973679;28;20974;-84
2022/06/24 08:33:33;;;;;;;;;;;;;;;24.58;59.42;100550.09;4972836;28;19943;-85
2022/06/24 08:35:59;;;;;;;;;;;;;;;24.68;59.31;100547.78;4971523;28;19945;-83
2022/06/24 08:38:24;;;;;;;;;;;;;;;25.06;58.14;100528.19;4923928;28;19953;-82
2022/06/24 08:40:52;;;;;;;;;;;;;;;25.12;57.88;100544.09;4960295;28;19942;-82
2022/06/24 08:43:19;;;;;;;;;;;;;;;25.68;55.72;100547.59;4967674;28;20422;-85
2022/06/24 08:45:46;;;;;;;;;;;;;;;25.76;55.58;100568.59;4980464;28;19938;-87
2022/06/24 08:48:12;;;;;;;;;;;;;;;26.05;55.17;100575.78;4978464;28;20112;-81
2022/06/24 08:50:39;;;;;;;;;;;;;;;26.08;54.52;100572.66;4968236;28;19940;-91
2022/06/24 08:53:09;;;;;;;;;;;;;;;26.16;54.34;100574.19;4918401;28;19976;-83
2022/06/24 08:55:35;;;;;;;;;;;;;;;26.11;54.47;100568.72;4974321;28;19934;-84
2022/06/24 08:58:05;;;;;;;;;;;;;;;25.97;54.98;100577.97;4969616;28;19950;-84
2022/06/24 09:00:30;;;;;;;;;;;;;;;26.03;54.53;100579.72;4947074;28;19966;-85
2022/06/24 09:02:56;;;;;;;;;;;;;;;26.11;54.04;100577.53;4966537;28;20082;-86
2022/06/24 09:05:25;;;;;;;;;;;;;;;26.25;53.84;100578.19;4937174;28;20039;-86
2022/06/24 09:07:56;;;;;;;;;;;;;;;26.16;54.45;100595.53;4978541;28;20440;-86
2022/06/24 09:10:22;;;;;;;;;;;;;;;25.86;55.54;100596.38;4928850;28;19953;-88
2022/06/24 09:12:48;;;;;;;;;;;;;;;26.20;54.50;100594.84;4975918;28;19949;-87
2022/06/24 09:15:14;;;;;;;;;;;;;;;25.48;56.86;100596.56;4945650;28;19954;-85
2022/06/24 09:17:40;;;;;;;;;;;;;;;25.96;55.14;100593.16;4973043;28;20005;-85
2022/06/24 09:20:08;;;;;;;;;;;;;;;26.13;54.38;100588.00;4936378;28;19964;-86
2022/06/24 09:22:33;;;;;;;;;;;;;;;25.95;54.58;100580.84;4972146;28;19943;-86
2022/06/24 09:25:01;;;;;;;;;;;;;;;26.03;54.94;100595.72;4942777;28;20001;-86
2022/06/24 09:27:26;;;;;;;;;;;;;;;26.11;54.57;100600.75;4960870;28;19951;-86
2022/06/24 09:29:52;;;;;;;;;;;;;;;26.04;55.06;100608.03;4967622;28;19949;-86
2022/06/24 09:32:17;;;;;;;;;;;;;;;25.99;55.02;100619.38;4931493;28;19963;-85
2022/06/24 09:34:59;;;;;;;;;;;;;;;25.98;55.42;100619.59;4965528;28;19947;-86
2022/06/24 09:37:34;;;;;;;;;;;;;;;26.05;55.02;100631.03;4930200;28;19958;-85
2022/06/24 09:40:13;;;;;;;;;;;;;;;26.05;54.73;100621.16;4966255;28;20027;-85
2022/06/24 09:42:39;;;;;;;;;;;;;;;26.16;54.62;100612.38;4933933;28;19999;-86
2022/06/24 09:45:04;;;;;;;;;;;;;;;26.07;54.72;100613.75;4955500;28;20354;-86
2022/06/24 09:47:41;;;;;;;;;;;;;;;26.14;54.59;100617.13;4967565;28;20021;-89
2022/06/24 09:50:07;;;;;;;;;;;;;;;26.13;54.38;100617.34;4936090;28;19948;-87
2022/06/24 09:52:32;;;;;;;;;;;;;;;25.97;54.99;100617.97;4966429;28;19945;-87
2022/06/24 09:54:59;;;;;;;;;;;;;;;25.99;55.16;100615.88;4936011;28;19949;-88
2022/06/24 09:57:25;;;;;;;;;;;;;;;26.08;55.09;100610.03;4967183;28;19937;-87
2022/06/24 10:02:37;;;;;;;;;;;;;;;26.05;55.09;100610.50;4967779;28;19989;-87
2022/06/24 10:05:03;;;;;;;;;;;;;;;25.98;55.58;100619.59;4935791;28;20461;-87
2022/06/24 10:07:31;;;;;;;;;;;;;;;26.17;54.96;100605.97;4967873;28;19932;-87
2022/06/24 10:09:58;;;;;;;;;;;;;;;26.17;54.80;100603.31;4930991;28;19947;-86
2022/06/24 10:12:23;;;;;;;;;;;;;;;26.09;54.93;100621.50;4964825;28;19952;-86
2022/06/24 10:14:49;;;;;;;;;;;;;;;26.04;54.77;100624.06;4931728;28;19993;-86
2022/06/24 10:17:15;;;;;;;;;;;;;;;25.81;55.83;100635.41;4949162;28;20311;-86
2022/06/24 10:19:41;;;;;;;;;;;;;;;25.81;55.65;100654.06;4967542;28;19959;-86
2022/06/24 10:22:06;;;;;;;;;;;;;;;25.65;55.77;100651.97;4932317;28;19968;-86
2022/06/24 10:24:38;;;;;;;;;;;;;;;25.77;55.67;100640.38;4954462;28;20433;-87
2022/06/24 10:27:04;;;;;;;;;;;;;;;25.90;55.03;100624.22;4930037;28;20632;-88
2022/06/24 10:29:30;;;;;;;;;;;;;;;25.89;54.98;100627.13;4963174;28;19966;-87
2022/06/24 10:31:59;;;;;;;;;;;;;;;25.88;54.98;100630.81;4936325;28;19957;-87
2022/06/24 10:34:34;;;;;;;;;;;;;;;26.00;54.25;100642.34;4960298;28;20535;-88
2022/06/24 10:36:59;;;;;;;;;;;;;;;25.74;55.29;100642.69;4963146;28;19974;-88
2022/06/24 10:39:26;;;;;;;;;;;;;;;25.94;54.35;100643.25;4935632;28;21732;-87
2022/06/24 10:41:58;;;;;;;;;;;;;;;25.72;54.67;100658.91;4971786;28;21071;-87
2022/06/24 10:44:25;;;;;;;;;;;;;;;25.81;54.61;100667.41;4936989;28;20074;-86
2022/06/24 10:47:12;;;;;;;;;;;;;;;25.94;53.92;100666.44;4966382;28;21580;-86
2022/06/24 10:49:54;;;;;;;;;;;;;;;25.71;54.59;100675.97;4916574;28;19944;-85
2022/06/24 10:52:28;;;;;;;;;;;;;;;25.74;54.54;100664.03;4959273;28;19938;-85
2022/06/24 10:55:12;;;;;;;;;;;;;;;25.85;53.72;100664.09;4927077;28;21083;-88
2022/06/24 10:57:38;;;;;;;;;;;;;;;26.09;52.56;100674.88;4969070;28;20322;-89
2022/06/24 11:00:12;;;;;;;;;;;;;;;25.94;52.96;100679.78;4940934;28;19969;-89
2022/06/24 11:02:38;;;;;;;;;;;;;;;25.95;52.76;100692.09;4964909;28;20011;-88
2022/06/24 11:05:05;;;;;;;;;;;;;;;25.88;52.69;100692.19;4927764;28;20419;-89
2022/06/24 11:07:31;;;;;;;;;;;;;;;25.82;52.77;100695.72;4969172;28;20682;-89
2022/06/24 11:09:56;;;;;;;;;;;;;;;25.74;53.01;100699.50;4970582;28;20042;-89
2022/06/24 11:12:31;;;;;;;;;;;;;;;25.61;53.01;100696.94;4941837;28;19953;-89
2022/06/24 11:14:57;;;;;;;;;;;;;;;25.67;52.80;100709.38;4966254;28;20472;-87
2022/06/24 11:17:24;;;;;;;;;;;;;;;25.86;52.16;100712.94;4947698;28;19944;-89
2022/06/24 11:19:49;;;;;;;;;;;;;;;25.86;51.81;100710.25;4992508;28;19956;-90
2022/06/24 11:22:15;;;;;;;;;;;;;;;25.81;52.02;100715.44;4940329;28;19969;-89
2022/06/24 11:24:41;;;;;;;;;;;;;;;25.63;52.38;100708.19;4970999;28;19942;-89
2022/06/24 11:27:07;;;;;;;;;;;;;;;25.72;52.14;100709.59;4939403;28;20547;-90
2022/06/24 11:29:56;;;;;;;;;;;;;;;25.71;52.04;100697.28;4969016;28;20005;-90
2022/06/24 11:32:22;;;;;;;;;;;;;;;25.64;52.57;100706.34;4952809;28;19947;-90
2022/06/24 11:34:48;;;;;;;;;;;;;;;25.63;52.47;100699.38;4974687;28;19935;-90
2022/06/24 11:37:19;;;;;;;;;;;;;;;25.66;51.99;100709.59;4935779;28;20863;-90
2022/06/24 11:39:44;;;;;;;;;;;;;;;25.63;52.32;100712.72;4970948;28;19960;-89
2022/06/24 11:42:14;;;;;;;;;;;;;;;25.47;52.48;100716.75;4963424;28;20925;-89
2022/06/24 11:44:40;;;;;;;;;;;;;;;25.51;52.50;100716.13;4955254;28;19939;-87
2022/06/24 11:47:06;;;;;;;;;;;;;;;25.50;52.51;100703.84;4959032;28;20047;-87
2022/06/24 11:49:32;;;;;;;;;;;;;;;25.48;52.59;100700.53;4952612;28;20307;-88
2022/06/24 11:51:58;;;;;;;;;;;;;;;25.49;52.63;100691.50;4959771;28;19993;-87
2022/06/24 11:54:27;;;;;;;;;;;;;;;25.42;52.96;100701.44;4914676;28;20418;-87
2022/06/24 11:56:53;;;;;;;;;;;;;;;25.41;53.02;100710.47;4963218;28;19940;-89
2022/06/24 11:59:19;;;;;;;;;;;;;;;25.40;53.75;100713.34;4930656;28;19971;-88
2022/06/24 12:01:45;;;;;;;;;;;;;;;25.37;53.57;100709.28;4966589;28;21112;-88
2022/06/24 12:04:12;;;;;;;;;;;;;;;25.39;54.20;100711.72;4937744;28;19952;-88
2022/06/24 12:06:38;;;;;;;;;;;;;;;25.35;53.62;100697.22;4963449;28;19952;-87
2022/06/24 12:09:04;;;;;;;;;;;;;;;25.45;54.02;100717.00;4916583;28;19952;-87
2022/06/24 12:11:35;;;;;;;;;;;;;;;25.49;54.04;100718.19;4963139;28;19970;-88
2022/06/24 12:14:05;;;;;;;;;;;;;;;25.45;53.80;100714.31;4961750;28;20082;-87
2022/06/24 12:17:02;;;;;;;;;;;;;;;25.56;53.10;100715.47;4935345;28;19980;-89
2022/06/24 12:19:29;;;;;;;;;;;;;;;25.46;53.69;100717.81;4909051;28;21353;-89
2022/06/24 12:22:08;;;;;;;;;;;;;;;25.45;54.01;100727.66;4967909;28;19948;-88
2022/06/24 12:24:34;;;;;;;;;;;;;;;25.42;54.09;100724.63;4935960;28;20780;-88
2022/06/24 12:27:04;;;;;;;;;;;;;;;25.43;54.60;100716.41;4955758;28;19949;-88
2022/06/24 12:29:39;;;;;;;;;;;;;;;25.41;54.70;100715.00;4966375;28;19966;-90
2022/06/24 12:32:05;;;;;;;;;;;;;;;25.46;54.22;100713.28;4939882;28;19948;-90
2022/06/24 12:34:35;;;;;;;;;;;;;;;25.51;54.32;100715.31;4969447;28;20094;-89
2022/06/24 12:37:07;;;;;;;;;;;;;;;25.48;54.67;100721.06;4938459;28;19976;-89
2022/06/24 12:39:34;;;;;;;;;;;;;;;25.46;54.83;100709.81;4968947;28;20012;-91
2022/06/24 12:41:59;;;;;;;;;;;;;;;25.58;54.47;100716.06;4929704;28;20707;-90